Time;durP1;ratioP1;P1;durP2;ratioP2;P2;SDS_P1;SDS_P2;PMS_P1;PMS_P2;Temp;Humidity;BMP_temperature;BMP_pressure;BME280_temperature;BME280_humidity;BME280_pressure;Samples;Min_cycle;Max_cycle;Signal;HPM_P1;HPM_P2
2024/04/01 00:01:12;;;;;;;4.10;1.97;;;14.60;99.90;;;;;;5020161;28;20296;-69
2024/04/01 00:03:38;;;;;;;6.70;1.90;;;14.60;99.90;;;;;;5019086;28;20216;-69
2024/04/01 00:06:03;;;;;;;9.10;2.07;;;14.60;99.90;;;;;;5009350;28;20212;-69
2024/04/01 00:08:29;;;;;;;7.60;2.00;;;14.60;99.90;;;;;;5021803;28;20219;-70
2024/04/01 00:10:55;;;;;;;3.10;1.80;;;14.50;99.90;;;;;;5023610;28;20256;-69
2024/04/01 00:13:20;;;;;;;3.47;2.10;;;14.50;99.90;;;;;;5023874;28;20189;-68
2024/04/01 00:15:46;;;;;;;4.90;1.90;;;14.50;99.90;;;;;;5027706;28;20204;-69
2024/04/01 00:18:12;;;;;;;4.07;1.90;;;14.50;99.90;;;;;;5021422;28;20198;-69
2024/04/01 00:20:39;;;;;;;5.30;2.07;;;14.50;99.90;;;;;;5038742;28;20219;-69
2024/04/01 00:23:05;;;;;;;3.30;1.77;;;14.50;99.90;;;;;;5020155;28;20474;-70
2024/04/01 00:25:31;;;;;;;5.40;1.90;;;14.50;99.90;;;;;;5023579;28;20512;-70
2024/04/01 00:27:57;;;;;;;4.73;2.00;;;14.50;99.90;;;;;;5023239;28;20752;-70
2024/04/01 00:30:22;;;;;;;4.60;1.97;;;14.50;99.90;;;;;;5025600;28;20407;-70
2024/04/01 00:32:48;;;;;;;3.23;1.87;;;14.50;99.90;;;;;;5019353;28;20181;-69
2024/04/01 00:35:17;;;;;;;3.53;1.93;;;14.50;99.90;;;;;;5024788;28;20238;-69
2024/04/01 00:37:43;;;;;;;4.67;2.70;;;14.50;99.90;;;;;;5025390;28;20301;-69
2024/04/01 00:40:09;;;;;;;3.80;1.90;;;14.40;99.90;;;;;;5018127;28;20452;-69
2024/04/01 00:42:35;;;;;;;5.23;1.90;;;14.40;99.90;;;;;;5025399;28;20477;-69
2024/04/01 00:45:01;;;;;;;4.97;2.07;;;14.40;99.90;;;;;;5025537;28;20691;-69
2024/04/01 00:47:27;;;;;;;3.53;1.90;;;14.40;99.90;;;;;;5024593;28;20527;-69
2024/04/01 00:49:54;;;;;;;3.80;1.93;;;14.40;99.90;;;;;;5028097;28;20180;-69
2024/04/01 00:52:20;;;;;;;4.67;2.33;;;14.40;99.90;;;;;;5025646;28;20439;-69
2024/04/01 00:54:47;;;;;;;2.70;1.90;;;14.40;99.90;;;;;;5030897;28;20482;-69
2024/04/01 00:57:14;;;;;;;4.23;2.77;;;14.40;99.90;;;;;;5028159;28;20518;-70
2024/04/01 00:59:40;;;;;;;6.40;1.87;;;14.30;99.90;;;;;;5033363;28;20805;-69
2024/04/01 01:02:06;;;;;;;5.60;1.90;;;14.30;99.90;;;;;;5032211;28;20430;-69
2024/04/01 01:04:32;;;;;;;4.93;1.90;;;14.30;99.90;;;;;;5030745;28;20227;-69
2024/04/01 01:06:58;;;;;;;4.93;1.83;;;14.30;99.90;;;;;;5031209;28;20425;-69
2024/04/01 01:09:25;;;;;;;4.73;2.20;;;14.30;99.90;;;;;;5030575;28;20416;-69
2024/04/01 01:11:50;;;;;;;3.03;1.50;;;14.30;99.90;;;;;;5031654;28;20241;-69
2024/04/01 01:14:16;;;;;;;3.13;1.50;;;14.30;99.90;;;;;;5035207;28;20438;-69
2024/04/01 01:16:41;;;;;;;2.20;1.70;;;14.20;99.90;;;;;;5030040;28;20188;-69
2024/04/01 01:19:09;;;;;;;2.90;1.83;;;14.20;99.90;;;;;;5032595;28;20195;-69
2024/04/01 01:21:35;;;;;;;2.70;1.50;;;14.20;99.90;;;;;;5031662;28;20183;-69
2024/04/01 01:24:01;;;;;;;4.37;1.70;;;14.20;99.90;;;;;;5037186;28;20461;-69
2024/04/01 01:26:27;;;;;;;6.50;1.90;;;14.20;99.90;;;;;;5029891;28;20228;-69
2024/04/01 01:28:53;;;;;;;2.23;1.43;;;14.20;99.90;;;;;;5031146;28;20411;-69
2024/04/01 01:31:19;;;;;;;2.83;1.40;;;14.20;99.90;;;;;;5031204;28;20740;-69
2024/04/01 01:33:45;;;;;;;3.53;1.70;;;14.20;99.90;;;;;;5033821;28;20176;-69
2024/04/01 01:36:11;;;;;;;2.53;1.50;;;14.20;99.90;;;;;;5023257;28;20484;-69
2024/04/01 01:38:36;;;;;;;4.23;1.40;;;14.20;99.90;;;;;;5027022;28;20234;-69
2024/04/01 01:41:02;;;;;;;2.53;1.40;;;14.10;99.90;;;;;;5030354;28;20422;-69
2024/04/01 01:43:28;;;;;;;7.23;1.70;;;14.20;99.90;;;;;;5029640;28;20189;-69
2024/04/01 01:45:53;;;;;;;2.40;1.50;;;14.20;99.90;;;;;;5028231;28;20220;-68
2024/04/01 01:48:19;;;;;;;3.33;1.60;;;14.10;99.90;;;;;;5026061;28;20219;-68
2024/04/01 01:50:44;;;;;;;4.43;1.53;;;14.10;99.90;;;;;;5031544;28;20202;-69
2024/04/01 01:53:10;;;;;;;2.00;1.30;;;14.10;99.90;;;;;;5025738;28;20193;-69
2024/04/01 01:55:35;;;;;;;2.60;1.50;;;14.10;99.90;;;;;;5031549;28;20215;-69
2024/04/01 01:58:01;;;;;;;2.60;1.50;;;14.10;99.90;;;;;;5023014;28;20184;-69
2024/04/01 02:00:27;;;;;;;2.87;1.70;;;14.10;99.90;;;;;;5030553;28;20184;-69
2024/04/01 02:02:53;;;;;;;3.53;1.43;;;14.00;99.90;;;;;;5030009;28;20436;-69
2024/04/01 02:05:19;;;;;;;4.00;1.70;;;14.00;99.90;;;;;;5028098;28;20490;-69
2024/04/01 02:07:44;;;;;;;2.00;1.30;;;14.10;99.90;;;;;;5023557;28;20201;-69
2024/04/01 02:10:13;;;;;;;2.67;1.40;;;14.10;99.90;;;;;;5029115;28;20654;-69
2024/04/01 02:12:40;;;;;;;3.40;1.53;;;14.10;99.90;;;;;;5025483;28;20662;-69
2024/04/01 02:15:06;;;;;;;2.90;1.40;;;14.10;99.90;;;;;;5031922;28;20443;-69
2024/04/01 02:17:32;;;;;;;2.20;1.60;;;14.10;99.90;;;;;;5031954;28;20522;-69
2024/04/01 02:19:58;;;;;;;3.00;1.47;;;14.00;99.90;;;;;;5026775;28;20558;-69
2024/04/01 02:22:23;;;;;;;3.20;1.90;;;14.00;99.90;;;;;;5030523;28;20180;-69
2024/04/01 02:24:49;;;;;;;2.60;1.47;;;14.00;99.90;;;;;;5030247;28;20207;-69
2024/04/01 02:27:15;;;;;;;5.17;1.93;;;14.00;99.90;;;;;;5027085;28;20181;-69
2024/04/01 02:29:40;;;;;;;3.83;2.10;;;14.00;99.90;;;;;;5029993;28;20422;-69
2024/04/01 02:32:06;;;;;;;4.07;1.87;;;14.00;99.90;;;;;;5023851;28;20255;-69
2024/04/01 02:34:32;;;;;;;4.23;1.97;;;14.00;99.90;;;;;;5024941;28;20208;-69
2024/04/01 02:36:58;;;;;;;3.07;1.80;;;13.90;99.90;;;;;;5028289;28;20267;-69
2024/04/01 02:39:24;;;;;;;2.47;1.50;;;13.90;99.90;;;;;;5025751;28;20585;-69
2024/04/01 02:41:51;;;;;;;3.50;1.60;;;13.90;99.90;;;;;;5022507;28;20176;-69
2024/04/01 02:44:17;;;;;;;4.83;1.60;;;13.90;99.90;;;;;;5023417;28;20212;-69
2024/04/01 02:46:44;;;;;;;6.20;1.60;;;13.80;99.90;;;;;;5022470;28;21213;-69
2024/04/01 02:49:10;;;;;;;2.83;1.70;;;13.80;99.90;;;;;;5019891;28;20187;-69
2024/04/01 02:51:36;;;;;;;3.63;1.70;;;13.70;99.90;;;;;;5029915;28;20415;-69
2024/04/01 02:54:03;;;;;;;6.90;2.30;;;13.70;99.90;;;;;;5020316;28;21484;-69
2024/04/01 02:56:29;;;;;;;2.73;1.73;;;13.80;99.90;;;;;;5028413;28;20420;-69
2024/04/01 02:58:54;;;;;;;3.00;1.70;;;13.80;99.90;;;;;;5027020;28;20530;-69
2024/04/01 03:01:20;;;;;;;3.03;2.10;;;13.80;99.90;;;;;;5022599;28;20521;-69
2024/04/01 03:03:46;;;;;;;2.93;2.07;;;13.80;99.90;;;;;;5027985;28;20218;-69
2024/04/01 03:06:12;;;;;;;4.07;1.77;;;13.80;99.90;;;;;;5028075;28;20223;-69
2024/04/01 03:08:38;;;;;;;3.47;1.83;;;13.70;99.90;;;;;;5027435;28;20558;-69
2024/04/01 03:11:04;;;;;;;2.90;2.00;;;13.60;99.90;;;;;;5024911;28;20415;-69
2024/04/01 03:13:30;;;;;;;3.97;1.90;;;13.60;99.90;;;;;;5026731;28;20454;-69
2024/04/01 03:15:56;;;;;;;2.27;1.60;;;13.70;99.90;;;;;;5027830;28;20279;-69
2024/04/01 03:18:23;;;;;;;6.57;2.00;;;13.70;99.90;;;;;;5021056;28;20211;-69
2024/04/01 03:20:49;;;;;;;4.50;2.10;;;13.60;99.90;;;;;;5028347;28;20438;-69
2024/04/01 03:23:16;;;;;;;4.10;2.13;;;13.40;99.90;;;;;;5024636;28;20498;-69
2024/04/01 03:25:43;;;;;;;3.20;1.77;;;13.30;99.90;;;;;;5032155;28;20775;-69
2024/04/01 03:28:08;;;;;;;2.80;2.10;;;13.30;99.90;;;;;;5028291;28;20439;-68
2024/04/01 03:30:34;;;;;;;3.10;1.87;;;13.30;99.90;;;;;;5013898;28;20537;-69
2024/04/01 03:33:00;;;;;;;2.70;2.03;;;13.20;99.90;;;;;;5024742;28;20198;-69
2024/04/01 03:35:26;;;;;;;6.87;2.43;;;13.20;99.90;;;;;;5027939;28;20426;-69
2024/04/01 03:37:52;;;;;;;8.60;2.27;;;13.20;99.90;;;;;;5024335;28;20434;-69
2024/04/01 03:40:19;;;;;;;4.93;2.40;;;13.30;99.90;;;;;;5027302;28;20181;-69
2024/04/01 03:42:45;;;;;;;4.60;2.00;;;13.30;99.90;;;;;;5025111;28;20498;-68
2024/04/01 03:45:10;;;;;;;4.20;2.10;;;13.20;99.90;;;;;;5020891;28;20493;-69
2024/04/01 03:47:37;;;;;;;3.43;2.40;;;13.10;99.90;;;;;;5025142;28;20184;-69
2024/04/01 03:50:05;;;;;;;7.67;1.93;;;13.10;99.90;;;;;;5022994;28;20212;-69
2024/04/01 03:52:31;;;;;;;3.77;2.10;;;13.10;99.90;;;;;;5020470;28;20422;-69
2024/04/01 03:54:58;;;;;;;4.53;2.10;;;13.20;99.90;;;;;;5020682;28;20547;-70
2024/04/01 03:57:23;;;;;;;5.83;2.30;;;13.20;99.90;;;;;;5020059;28;20444;-68
2024/04/01 03:59:49;;;;;;;5.03;2.23;;;13.20;99.90;;;;;;5028733;28;20547;-69
2024/04/01 04:02:15;;;;;;;3.50;2.03;;;13.30;99.90;;;;;;5020468;28;20304;-69
2024/04/01 04:04:41;;;;;;;3.30;2.43;;;13.30;99.90;;;;;;5025251;28;20363;-69
2024/04/01 04:07:07;;;;;;;5.93;2.07;;;13.30;99.90;;;;;;5024492;28;20538;-69
2024/04/01 04:09:32;;;;;;;3.60;2.00;;;13.20;99.90;;;;;;5020006;28;20172;-69
2024/04/01 04:11:58;;;;;;;3.53;2.17;;;13.10;99.90;;;;;;5023894;28;20188;-69
2024/04/01 04:14:23;;;;;;;4.00;2.00;;;13.10;99.90;;;;;;5020146;28;20591;-70
2024/04/01 04:16:50;;;;;;;5.87;1.90;;;13.10;99.90;;;;;;5022060;28;20180;-69
2024/04/01 04:19:19;;;;;;;2.70;1.67;;;13.20;99.90;;;;;;5015933;28;20199;-69
2024/04/01 04:21:45;;;;;;;3.90;1.80;;;13.10;99.90;;;;;;5017842;28;20526;-70
2024/04/01 04:24:13;;;;;;;3.87;1.90;;;13.20;99.90;;;;;;5016917;28;20495;-70
2024/04/01 04:26:39;;;;;;;2.80;1.70;;;13.30;99.90;;;;;;5023732;28;20438;-70
2024/04/01 04:29:05;;;;;;;2.67;1.77;;;13.30;99.90;;;;;;5021489;28;20431;-70
2024/04/01 04:31:31;;;;;;;7.03;2.10;;;13.20;99.90;;;;;;5019672;28;20525;-70
2024/04/01 04:33:58;;;;;;;2.40;1.60;;;13.00;99.90;;;;;;5022790;28;20718;-70
2024/04/01 04:36:23;;;;;;;3.93;1.60;;;12.90;99.90;;;;;;5014583;28;20791;-70
2024/04/01 04:38:49;;;;;;;3.07;1.70;;;12.80;99.90;;;;;;5017156;28;20438;-70
2024/04/01 04:41:19;;;;;;;2.27;1.63;;;12.80;99.90;;;;;;5022821;28;20180;-71
2024/04/01 04:43:45;;;;;;;4.30;1.70;;;12.80;99.90;;;;;;5017460;28;20583;-69
2024/04/01 04:46:14;;;;;;;2.00;1.60;;;12.90;99.90;;;;;;5023974;28;20455;-70
2024/04/01 04:48:43;;;;;;;2.63;1.80;;;12.80;99.90;;;;;;5022397;28;20442;-70
2024/04/01 04:51:10;;;;;;;2.87;1.73;;;12.80;99.90;;;;;;5019886;28;20458;-70
2024/04/01 04:53:36;;;;;;;3.40;2.10;;;12.70;99.90;;;;;;5021411;28;20430;-70
2024/04/01 04:56:04;;;;;;;8.53;3.10;;;12.70;99.90;;;;;;5019812;28;20825;-70
2024/04/01 04:58:32;;;;;;;2.60;1.90;;;12.70;99.90;;;;;;5019401;28;21513;-70
2024/04/01 05:01:05;;;;;;;2.47;1.87;;;12.70;99.90;;;;;;5016123;28;20450;-70
2024/04/01 05:03:31;;;;;;;5.83;2.30;;;12.60;99.90;;;;;;5020118;28;20529;-69
2024/04/01 05:05:57;;;;;;;2.93;2.30;;;12.50;99.90;;;;;;5019129;28;20463;-69
2024/04/01 05:08:23;;;;;;;3.57;2.27;;;12.50;99.90;;;;;;5019703;28;20943;-69
2024/04/01 05:10:50;;;;;;;3.27;2.00;;;12.50;99.90;;;;;;5020229;28;20235;-69
2024/04/01 05:13:15;;;;;;;3.20;1.97;;;12.60;99.90;;;;;;5016933;28;20832;-69
2024/04/01 05:15:41;;;;;;;4.23;2.40;;;12.60;99.90;;;;;;5022413;28;20612;-69
2024/04/01 05:18:06;;;;;;;4.37;2.20;;;12.60;99.90;;;;;;5022397;28;20706;-69
2024/04/01 05:20:32;;;;;;;4.10;2.20;;;12.60;99.90;;;;;;5019195;28;20181;-69
2024/04/01 05:22:57;;;;;;;4.53;1.97;;;12.60;99.90;;;;;;5016218;28;20279;-69
2024/04/01 05:25:24;;;;;;;2.40;1.80;;;12.70;99.90;;;;;;5019492;28;20215;-69
2024/04/01 05:27:50;;;;;;;2.77;2.17;;;12.70;99.90;;;;;;5021246;28;20182;-70
2024/04/01 05:30:19;;;;;;;4.00;1.80;;;12.70;99.90;;;;;;5019892;28;20469;-69
2024/04/01 05:32:44;;;;;;;3.40;2.00;;;12.60;99.90;;;;;;5021412;28;20275;-70
2024/04/01 05:35:11;;;;;;;6.03;2.37;;;12.70;99.90;;;;;;5023347;28;20918;-69
2024/04/01 05:37:37;;;;;;;4.90;2.40;;;12.70;99.90;;;;;;5021987;28;20310;-70
2024/04/01 05:40:04;;;;;;;3.90;2.00;;;12.70;99.90;;;;;;5026370;28;20509;-70
2024/04/01 05:42:29;;;;;;;6.47;1.90;;;12.60;99.90;;;;;;5021017;28;20180;-69
2024/04/01 05:44:55;;;;;;;4.00;1.97;;;12.60;99.90;;;;;;5025176;28;20489;-69
2024/04/01 05:47:21;;;;;;;3.50;2.17;;;12.60;99.90;;;;;;5019926;28;20191;-69
2024/04/01 05:49:46;;;;;;;2.33;1.87;;;12.60;99.90;;;;;;5022844;28;20284;-70
2024/04/01 05:52:12;;;;;;;2.73;1.97;;;12.60;99.90;;;;;;5025702;28;20188;-70
2024/04/01 05:54:37;;;;;;;4.10;2.10;;;12.60;99.90;;;;;;5021961;28;20204;-70
2024/04/01 05:57:03;;;;;;;3.10;2.00;;;12.60;99.90;;;;;;5023694;28;20354;-70
2024/04/01 05:59:29;;;;;;;3.90;2.20;;;12.50;99.90;;;;;;5020771;28;20183;-70
2024/04/01 06:01:58;;;;;;;2.30;1.80;;;12.50;99.90;;;;;;5029025;28;20192;-69
2024/04/01 06:04:26;;;;;;;4.43;1.93;;;12.50;99.90;;;;;;5019744;28;20224;-70
2024/04/01 06:06:52;;;;;;;5.13;2.33;;;12.50;99.90;;;;;;5024961;28;20499;-70
2024/04/01 06:09:18;;;;;;;5.97;2.33;;;12.50;99.90;;;;;;5023256;28;20446;-70
2024/04/01 06:11:43;;;;;;;2.70;2.00;;;12.50;99.90;;;;;;5020351;28;20438;-70
2024/04/01 06:14:09;;;;;;;3.27;1.83;;;12.60;99.90;;;;;;5025518;28;20447;-70
2024/04/01 06:16:38;;;;;;;2.20;1.60;;;12.60;99.90;;;;;;5021407;28;20230;-70
2024/04/01 06:19:05;;;;;;;4.13;1.80;;;12.60;99.90;;;;;;5020756;28;20308;-70
2024/04/01 06:21:31;;;;;;;4.93;2.10;;;12.50;99.90;;;;;;5021611;28;20427;-70
2024/04/01 06:23:58;;;;;;;5.63;2.70;;;12.60;99.90;;;;;;5023441;28;20505;-69
2024/04/01 06:26:24;;;;;;;3.33;1.80;;;12.60;99.90;;;;;;5020246;28;20518;-72
2024/04/01 06:28:50;;;;;;;2.60;1.90;;;12.60;99.90;;;;;;5021386;28;20522;-72
2024/04/01 06:31:16;;;;;;;2.87;1.73;;;12.60;99.90;;;;;;5021443;28;20431;-72
2024/04/01 06:33:42;;;;;;;2.53;1.77;;;12.60;99.90;;;;;;5021537;28;20327;-72
2024/04/01 06:36:08;;;;;;;2.77;1.60;;;12.40;99.90;;;;;;5022073;28;20427;-72
2024/04/01 06:38:34;;;;;;;3.60;1.70;;;12.40;99.90;;;;;;5022427;28;20418;-72
2024/04/01 06:41:00;;;;;;;2.30;1.50;;;12.30;99.90;;;;;;5021363;28;20231;-72
2024/04/01 06:43:25;;;;;;;3.33;1.50;;;12.20;99.90;;;;;;5020777;28;20639;-72
2024/04/01 06:46:00;;;;;;;2.40;1.50;;;12.20;99.90;;;;;;5019448;28;20555;-72
2024/04/01 06:48:26;;;;;;;2.93;1.60;;;12.30;99.90;;;;;;5021896;28;20235;-72
2024/04/01 06:50:52;;;;;;;5.33;1.50;;;12.30;99.90;;;;;;5024877;28;20434;-72
2024/04/01 06:53:18;;;;;;;2.97;1.73;;;12.30;99.90;;;;;;5029015;28;20964;-72
2024/04/01 06:55:44;;;;;;;2.70;1.60;;;12.30;99.90;;;;;;5020498;28;20458;-72
2024/04/01 06:58:10;;;;;;;2.53;1.50;;;12.30;99.90;;;;;;5022424;28;20686;-72
2024/04/01 07:00:36;;;;;;;3.47;1.50;;;12.30;99.90;;;;;;5020391;28;20486;-72
2024/04/01 07:03:02;;;;;;;2.17;1.20;;;12.20;99.90;;;;;;5020194;28;21122;-72
2024/04/01 07:05:30;;;;;;;2.40;1.50;;;12.30;99.90;;;;;;5022646;28;20474;-72
2024/04/01 07:07:56;;;;;;;1.90;1.30;;;12.30;99.90;;;;;;5021409;28;20236;-72
2024/04/01 07:10:22;;;;;;;2.00;1.13;;;12.30;99.90;;;;;;5020740;28;20462;-72
2024/04/01 07:12:48;;;;;;;5.10;1.30;;;12.20;99.90;;;;;;5033781;28;20435;-71
2024/04/01 07:15:13;;;;;;;2.03;1.23;;;12.30;99.90;;;;;;5020197;28;20204;-71
2024/04/01 07:17:39;;;;;;;2.43;1.33;;;12.30;99.90;;;;;;5019206;28;20665;-71
2024/04/01 07:20:07;;;;;;;2.33;1.20;;;12.40;99.90;;;;;;5018243;28;20195;-72
2024/04/01 07:22:32;;;;;;;4.10;1.20;;;12.40;99.90;;;;;;5021614;28;20425;-71
2024/04/01 07:24:58;;;;;;;2.47;1.30;;;12.40;99.90;;;;;;5022251;28;20471;-71
2024/04/01 07:27:23;;;;;;;1.80;1.10;;;12.40;99.90;;;;;;5020892;28;20242;-71
2024/04/01 07:29:49;;;;;;;2.00;1.23;;;12.40;99.90;;;;;;5021185;28;20181;-71
2024/04/01 07:32:15;;;;;;;1.83;1.27;;;12.30;99.90;;;;;;5020544;28;20177;-71
2024/04/01 07:34:41;;;;;;;2.53;1.30;;;12.20;99.90;;;;;;5021903;28;20441;-71
2024/04/01 07:37:06;;;;;;;2.50;1.40;;;12.10;99.90;;;;;;5020670;28;20294;-71
2024/04/01 07:39:33;;;;;;;2.40;1.20;;;12.10;99.90;;;;;;5022867;28;20173;-72
2024/04/01 07:41:59;;;;;;;3.10;1.40;;;12.30;99.90;;;;;;5019430;28;20211;-72
2024/04/01 07:44:24;;;;;;;2.00;1.20;;;12.20;99.90;;;;;;5016469;28;20558;-72
2024/04/01 07:46:50;;;;;;;2.03;1.17;;;12.20;99.90;;;;;;5018778;28;20188;-72
2024/04/01 07:49:15;;;;;;;2.60;1.30;;;12.10;99.90;;;;;;5018952;28;20177;-72
2024/04/01 07:51:41;;;;;;;2.20;1.23;;;12.20;99.90;;;;;;5020569;28;20647;-71
2024/04/01 07:54:07;;;;;;;1.80;1.10;;;12.20;99.90;;;;;;5017643;28;20246;-72
2024/04/01 07:56:32;;;;;;;2.30;1.20;;;12.20;99.90;;;;;;5017391;28;20215;-72
2024/04/01 07:58:58;;;;;;;2.80;1.30;;;12.30;99.90;;;;;;5017896;28;20226;-72
2024/04/01 08:01:23;;;;;;;3.13;1.50;;;12.50;99.90;;;;;;5019326;28;20184;-71
2024/04/01 08:03:49;;;;;;;12.53;1.40;;;12.50;99.90;;;;;;5020671;28;20204;-71
2024/04/01 08:06:15;;;;;;;2.33;1.30;;;12.40;99.90;;;;;;5021607;28;20168;-72
2024/04/01 08:08:41;;;;;;;2.53;1.20;;;12.40;99.90;;;;;;5019068;28;20184;-71
2024/04/01 08:11:06;;;;;;;1.70;1.10;;;12.40;99.90;;;;;;5018591;28;20436;-72
2024/04/01 08:13:32;;;;;;;1.80;1.10;;;12.40;99.90;;;;;;5020595;28;20192;-71
2024/04/01 08:16:02;;;;;;;1.83;1.10;;;12.50;99.90;;;;;;5015112;28;20586;-71
2024/04/01 08:18:28;;;;;;;2.20;1.10;;;12.50;99.90;;;;;;5019241;28;20726;-71
2024/04/01 08:20:56;;;;;;;1.70;1.00;;;12.50;99.90;;;;;;5019739;28;20420;-71
2024/04/01 08:23:22;;;;;;;4.63;1.27;;;12.50;99.90;;;;;;5019832;28;20215;-71
2024/04/01 08:25:47;;;;;;;2.60;1.20;;;12.40;99.90;;;;;;5019149;28;20544;-72
2024/04/01 08:28:13;;;;;;;1.90;1.17;;;12.40;99.90;;;;;;5020813;28;20876;-72
2024/04/01 08:30:39;;;;;;;1.90;1.10;;;12.40;99.90;;;;;;5022776;28;20803;-72
2024/04/01 08:33:05;;;;;;;3.60;1.17;;;12.50;99.90;;;;;;5024066;28;20669;-72
2024/04/01 08:35:31;;;;;;;2.03;1.30;;;12.50;99.90;;;;;;5022667;28;20450;-71
2024/04/01 08:37:56;;;;;;;2.80;1.33;;;12.40;99.90;;;;;;5021579;28;22608;-71
2024/04/01 08:40:22;;;;;;;2.43;1.47;;;12.40;99.90;;;;;;5019853;28;20187;-72
2024/04/01 08:42:54;;;;;;;2.07;1.00;;;12.40;99.90;;;;;;5018168;28;20537;-71
2024/04/01 08:45:21;;;;;;;2.00;1.40;;;12.30;99.90;;;;;;5020912;28;20466;-71
2024/04/01 08:47:53;;;;;;;2.20;1.40;;;12.40;99.90;;;;;;5018497;28;20430;-71
2024/04/01 08:50:23;;;;;;;2.60;1.80;;;12.40;99.90;;;;;;5021621;28;20403;-71
2024/04/01 08:52:56;;;;;;;2.30;1.50;;;12.40;99.90;;;;;;5015832;28;21719;-71
2024/04/01 08:55:23;;;;;;;2.73;1.47;;;12.40;99.90;;;;;;5016896;28;21146;-72
2024/04/01 08:57:48;;;;;;;2.13;1.23;;;12.30;99.90;;;;;;5012662;28;20427;-72
2024/04/01 09:00:14;;;;;;;2.00;1.23;;;12.40;99.90;;;;;;5016426;28;20762;-72
2024/04/01 09:02:40;;;;;;;2.00;1.17;;;12.40;99.90;;;;;;5021168;28;20271;-71
2024/04/01 09:05:07;;;;;;;2.60;1.50;;;12.30;99.90;;;;;;5025233;28;20199;-70
2024/04/01 09:07:34;;;;;;;3.23;1.23;;;12.40;99.90;;;;;;5016314;28;20315;-71
2024/04/01 09:09:59;;;;;;;3.60;1.67;;;12.30;99.90;;;;;;5028419;28;20435;-71
2024/04/01 09:12:26;;;;;;;1.90;1.20;;;12.40;99.90;;;;;;5025382;28;20436;-71
2024/04/01 09:14:52;;;;;;;2.67;1.30;;;12.40;99.90;;;;;;5017541;28;20290;-71
2024/04/01 09:17:27;;;;;;;2.07;1.20;;;12.50;99.90;;;;;;5024074;28;20451;-70
2024/04/01 09:19:59;;;;;;;1.90;1.20;;;12.50;99.90;;;;;;5020115;28;20188;-71
2024/04/01 09:22:25;;;;;;;2.20;1.30;;;12.40;99.90;;;;;;5021806;28;20809;-70
2024/04/01 09:24:51;;;;;;;3.87;1.70;;;12.50;99.90;;;;;;5018998;28;20485;-70
2024/04/01 09:27:16;;;;;;;3.17;1.40;;;12.50;99.90;;;;;;5017114;28;20253;-70
2024/04/01 09:29:42;;;;;;;2.73;1.30;;;12.50;99.90;;;;;;5015579;28;20741;-70
2024/04/01 09:32:08;;;;;;;5.07;1.33;;;12.40;99.90;;;;;;5021484;28;20177;-70
2024/04/01 09:34:34;;;;;;;2.53;1.50;;;12.40;99.90;;;;;;5024987;28;20203;-70
2024/04/01 09:37:00;;;;;;;4.40;2.87;;;12.50;99.90;;;;;;5023325;28;20422;-71
2024/04/01 09:39:26;;;;;;;2.60;1.40;;;12.50;99.90;;;;;;5021785;28;20568;-70
2024/04/01 09:41:52;;;;;;;1.83;1.20;;;12.40;99.90;;;;;;5020134;28;20438;-70
2024/04/01 09:44:18;;;;;;;3.33;1.30;;;12.40;99.90;;;;;;5012119;28;20471;-71
2024/04/01 09:46:44;;;;;;;1.90;1.20;;;12.20;99.90;;;;;;5022582;28;20437;-71
2024/04/01 09:49:11;;;;;;;1.90;1.10;;;12.20;99.90;;;;;;5028379;28;20188;-70
2024/04/01 09:51:37;;;;;;;2.00;1.13;;;12.20;99.90;;;;;;5025313;28;20189;-70
2024/04/01 09:54:03;;;;;;;1.70;1.10;;;12.10;99.90;;;;;;5013912;28;20487;-70
2024/04/01 09:56:40;;;;;;;2.77;1.30;;;12.20;99.90;;;;;;5018141;28;20505;-70
2024/04/01 09:59:24;;;;;;;1.63;1.07;;;12.10;99.90;;;;;;5025389;28;20235;-70
2024/04/01 10:02:09;;;;;;;1.90;1.20;;;12.10;99.90;;;;;;5024544;28;20450;-71
2024/04/01 10:04:59;;;;;;;2.10;1.10;;;12.00;99.90;;;;;;5027353;28;20558;-70
2024/04/01 10:08:02;;;;;;;3.40;1.30;;;11.90;99.90;;;;;;5023431;28;20420;-70
2024/04/01 10:10:37;;;;;;;2.70;1.40;;;11.80;99.90;;;;;;5023184;28;20529;-70
2024/04/01 10:13:41;;;;;;;2.10;1.17;;;11.80;99.90;;;;;;5022457;28;20863;-70
2024/04/01 10:16:18;;;;;;;2.03;1.20;;;11.60;99.90;;;;;;5022554;28;20451;-70
2024/04/01 10:19:14;;;;;;;3.33;1.37;;;11.60;99.90;;;;;;5016633;28;20538;-70
2024/04/01 10:22:11;;;;;;;2.10;1.17;;;11.60;99.90;;;;;;5029095;28;20572;-70
2024/04/01 10:24:52;;;;;;;2.50;1.07;;;11.70;99.90;;;;;;5018839;28;20479;-69
2024/04/01 10:27:23;;;;;;;2.07;1.10;;;11.80;99.90;;;;;;5021898;28;20457;-70
2024/04/01 10:30:27;;;;;;;1.87;1.17;;;12.00;99.90;;;;;;5024599;28;20468;-70
2024/04/01 10:32:56;;;;;;;2.00;1.13;;;12.20;99.90;;;;;;5032260;28;21144;-70
2024/04/01 10:35:55;;;;;;;1.80;1.03;;;12.10;99.90;;;;;;5024747;28;20455;-69
2024/04/01 10:38:58;;;;;;;3.23;1.70;;;12.20;99.90;;;;;;5019069;28;20777;-71
2024/04/01 10:42:01;;;;;;;2.00;1.33;;;12.20;99.90;;;;;;5017472;28;20439;-71
2024/04/01 10:45:05;;;;;;;2.53;1.37;;;12.10;99.90;;;;;;5020477;28;20467;-70
2024/04/01 10:47:36;;;;;;;1.73;1.20;;;12.00;99.90;;;;;;5022254;28;20880;-71
2024/04/01 10:50:18;;;;;;;2.00;1.20;;;11.90;99.90;;;;;;5023749;28;20431;-71
2024/04/01 10:52:49;;;;;;;2.00;1.37;;;11.90;99.90;;;;;;5022829;28;20530;-70
2024/04/01 10:55:24;;;;;;;3.13;1.30;;;11.80;99.90;;;;;;5022749;28;21034;-71
2024/04/01 10:57:52;;;;;;;2.50;1.33;;;11.80;99.90;;;;;;5025997;28;20436;-71
2024/04/01 11:00:36;;;;;;;2.30;1.30;;;11.80;99.90;;;;;;5020620;28;20442;-71
2024/04/01 11:03:25;;;;;;;2.20;1.30;;;11.90;99.90;;;;;;5016642;28;20431;-71
2024/04/01 11:06:14;;;;;;;1.90;1.40;;;11.80;99.90;;;;;;5023348;28;20474;-72
2024/04/01 11:08:48;;;;;;;2.10;1.33;;;11.80;99.90;;;;;;5020766;28;20473;-73
2024/04/01 11:11:38;;;;;;;2.30;1.50;;;11.70;99.90;;;;;;5021307;28;20581;-72
2024/04/01 11:14:08;;;;;;;3.47;1.23;;;11.60;99.90;;;;;;5021940;28;20550;-72
2024/04/01 11:16:40;;;;;;;2.10;1.37;;;11.60;99.90;;;;;;5020488;28;20420;-72
2024/04/01 11:19:33;;;;;;;2.20;1.50;;;11.50;99.90;;;;;;5018710;28;20467;-72
2024/04/01 11:22:03;;;;;;;2.20;1.20;;;11.40;99.90;;;;;;5020782;28;20431;-71
2024/04/01 11:24:33;;;;;;;2.37;1.30;;;11.30;99.90;;;;;;5019537;28;20516;-72
2024/04/01 11:27:13;;;;;;;1.90;1.30;;;11.20;99.90;;;;;;5021651;28;20477;-71
2024/04/01 11:29:51;;;;;;;2.00;1.20;;;11.30;99.90;;;;;;5021551;28;21280;-73
2024/04/01 11:32:23;;;;;;;2.43;1.53;;;11.30;99.90;;;;;;5018645;28;20427;-72
2024/04/01 11:34:54;;;;;;;2.40;1.37;;;11.30;99.90;;;;;;5017920;28;20528;-71
2024/04/01 11:37:32;;;;;;;2.67;1.40;;;11.30;99.90;;;;;;5018007;28;20425;-72
2024/04/01 11:40:04;;;;;;;2.00;1.30;;;11.20;99.90;;;;;;5019994;28;20536;-73
2024/04/01 11:42:32;;;;;;;3.17;1.57;;;11.30;99.90;;;;;;5023451;28;20967;-72
2024/04/01 11:45:04;;;;;;;2.97;1.77;;;11.30;99.90;;;;;;5017857;28;20997;-72
2024/04/01 11:47:31;;;;;;;2.47;1.27;;;11.40;99.90;;;;;;5017182;28;20423;-71
2024/04/01 11:49:56;;;;;;;1.80;1.20;;;11.40;99.90;;;;;;5017458;28;20458;-71
2024/04/01 11:52:24;;;;;;;2.70;1.70;;;11.40;99.90;;;;;;5020931;28;20978;-73
2024/04/01 11:54:49;;;;;;;2.87;1.50;;;11.40;99.90;;;;;;5020678;28;20955;-70
2024/04/01 11:57:25;;;;;;;2.37;1.40;;;11.60;99.90;;;;;;5021920;28;20427;-72
2024/04/01 12:00:06;;;;;;;2.10;1.40;;;11.60;99.90;;;;;;5021073;28;20594;-72
2024/04/01 12:02:33;;;;;;;1.70;1.10;;;11.60;99.90;;;;;;5021571;28;20817;-72
2024/04/01 12:05:05;;;;;;;1.90;1.20;;;11.50;99.90;;;;;;5020631;28;20471;-71
2024/04/01 12:07:33;;;;;;;2.30;1.20;;;11.50;99.90;;;;;;5021921;28;20502;-71
2024/04/01 12:10:05;;;;;;;1.80;1.10;;;11.50;99.90;;;;;;5022774;28;20446;-72
2024/04/01 12:12:35;;;;;;;2.63;1.00;;;11.30;99.90;;;;;;5018762;28;20442;-71
2024/04/01 12:15:02;;;;;;;1.97;1.23;;;11.40;99.90;;;;;;5018840;28;20439;-71
2024/04/01 12:17:29;;;;;;;1.97;1.10;;;11.40;99.90;;;;;;5020699;28;20906;-71
2024/04/01 12:19:57;;;;;;;2.87;1.10;;;11.40;99.90;;;;;;5020060;28;20453;-71
2024/04/01 12:22:25;;;;;;;2.10;1.17;;;11.60;99.90;;;;;;5014578;28;20436;-71
2024/04/01 12:24:51;;;;;;;2.10;1.10;;;11.70;99.90;;;;;;5025252;28;20610;-71
2024/04/01 12:27:17;;;;;;;2.07;1.10;;;11.80;99.90;;;;;;5020533;28;20464;-71
2024/04/01 12:29:44;;;;;;;2.27;1.10;;;11.70;99.90;;;;;;5019668;28;20431;-71
2024/04/01 12:32:10;;;;;;;2.00;1.00;;;11.80;99.90;;;;;;5022640;28;20423;-71
2024/04/01 12:34:44;;;;;;;1.67;0.97;;;11.80;99.90;;;;;;5020250;28;20441;-71
2024/04/01 12:37:09;;;;;;;2.87;1.10;;;12.00;99.90;;;;;;5015566;28;20991;-71
2024/04/01 12:39:43;;;;;;;2.00;1.10;;;12.00;99.90;;;;;;5025006;28;20449;-70
2024/04/01 12:42:10;;;;;;;2.03;1.10;;;12.10;99.90;;;;;;5024418;28;20184;-70
2024/04/01 12:44:37;;;;;;;1.87;1.10;;;12.10;99.90;;;;;;5024355;28;20475;-71
2024/04/01 12:47:08;;;;;;;1.70;1.00;;;12.10;99.90;;;;;;5020000;28;20457;-71
2024/04/01 12:49:34;;;;;;;1.67;1.03;;;11.80;99.90;;;;;;5021841;28;20430;-70
2024/04/01 12:52:04;;;;;;;1.83;1.10;;;11.80;99.90;;;;;;5032377;28;20538;-70
2024/04/01 12:54:36;;;;;;;1.60;1.00;;;11.80;99.90;;;;;;5024308;28;20451;-71